Time;durP1;ratioP1;P1;durP2;ratioP2;P2;SDS_P1;SDS_P2;PMS_P1;PMS_P2;Temp;Humidity;BMP_temperature;BMP_pressure;BME280_temperature;BME280_humidity;BME280_pressure;Samples;Min_cycle;Max_cycle;Signal;HPM_P1;HPM_P2
2022/09/10 00:02:10;;;;;;;19.05;10.63;;;24.00;85.00;;;;;;6126206;28;81253;-60
2022/09/10 00:05:11;;;;;;;16.58;10.75;;;23.90;84.90;;;;;;6123751;28;83814;-61
2022/09/10 00:08:12;;;;;;;17.42;10.27;;;23.90;85.10;;;;;;6123058;28;83360;-61
2022/09/10 00:11:13;;;;;;;18.58;10.30;;;24.00;85.10;;;;;;6123204;28;87424;-61
2022/09/10 00:14:14;;;;;;;15.63;10.02;;;23.90;85.00;;;;;;6115366;28;83790;-61
2022/09/10 00:17:14;;;;;;;23.40;10.07;;;24.00;84.90;;;;;;6105895;28;83742;-60
2022/09/10 00:20:15;;;;;;;15.88;10.18;;;23.90;84.80;;;;;;6122979;28;89699;-60
2022/09/10 00:23:15;;;;;;;17.42;10.30;;;23.90;85.50;;;;;;6124472;28;82812;-61
2022/09/10 00:26:16;;;;;;;17.60;10.70;;;23.90;84.90;;;;;;6124074;28;83124;-60
2022/09/10 00:29:18;;;;;;;20.88;11.20;;;23.90;85.10;;;;;;6120378;28;83341;-60
2022/09/10 00:32:19;;;;;;;20.73;10.60;;;23.90;84.80;;;;;;6110609;28;83927;-62
2022/09/10 00:35:20;;;;;;;14.65;9.65;;;23.90;85.10;;;;;;6102455;28;88503;-61
2022/09/10 00:38:21;;;;;;;16.08;9.48;;;23.90;85.10;;;;;;6115940;28;83064;-61
2022/09/10 00:41:22;;;;;;;21.75;11.98;;;23.90;85.20;;;;;;6117762;28;82943;-60
2022/09/10 00:44:23;;;;;;;20.58;11.40;;;23.90;85.20;;;;;;6126235;28;85164;-62
2022/09/10 00:47:23;;;;;;;29.13;12.15;;;23.90;85.30;;;;;;6125283;28;82947;-62
2022/09/10 00:50:24;;;;;;;24.13;11.30;;;23.90;85.20;;;;;;6142745;28;85485;-62
2022/09/10 00:53:25;;;;;;;21.95;12.07;;;23.90;85.10;;;;;;6127586;28;83558;-59
2022/09/10 00:56:26;;;;;;;19.08;12.38;;;23.90;85.00;;;;;;6139394;28;84232;-59
2022/09/10 00:59:27;;;;;;;18.90;12.65;;;23.80;85.20;;;;;;6125807;28;83217;-57
2022/09/10 01:02:27;;;;;;;20.90;12.40;;;23.90;85.20;;;;;;6142013;28;90630;-58
2022/09/10 01:05:28;;;;;;;23.27;11.75;;;23.90;85.30;;;;;;6128065;28;83277;-59
2022/09/10 01:08:30;;;;;;;19.90;11.85;;;23.90;85.20;;;;;;6141533;28;87655;-59
2022/09/10 01:11:30;;;;;;;23.23;12.23;;;23.90;85.00;;;;;;6126146;28;85452;-59
2022/09/10 01:14:31;;;;;;;20.17;11.60;;;23.80;85.10;;;;;;6139147;28;83345;-59
2022/09/10 01:17:32;;;;;;;21.35;12.23;;;23.80;85.20;;;;;;6128182;28;83132;-59
2022/09/10 01:20:32;;;;;;;18.90;11.50;;;23.80;85.90;;;;;;6133057;28;85229;-57
2022/09/10 01:23:33;;;;;;;17.48;11.13;;;23.80;85.10;;;;;;6144520;28;83038;-59
2022/09/10 01:26:35;;;;;;;20.75;12.13;;;23.80;85.80;;;;;;6142375;28;85842;-59
2022/09/10 01:29:36;;;;;;;24.25;12.30;;;23.90;85.40;;;;;;6142132;28;85771;-61
2022/09/10 01:32:36;;;;;;;18.67;10.48;;;23.90;85.00;;;;;;6157268;28;86900;-60
2022/09/10 01:35:37;;;;;;;18.38;11.07;;;23.90;85.00;;;;;;6137253;28;82680;-60
2022/09/10 01:38:38;;;;;;;21.10;11.90;;;23.90;85.10;;;;;;6144786;28;83156;-60
2022/09/10 01:41:39;;;;;;;15.68;10.98;;;23.90;85.70;;;;;;6149632;28;85435;-62
2022/09/10 01:44:40;;;;;;;17.63;10.88;;;23.90;85.00;;;;;;6147820;28;84085;-62
2022/09/10 01:47:41;;;;;;;21.05;11.90;;;23.90;85.20;;;;;;6118056;28;85467;-62
2022/09/10 01:50:42;;;;;;;20.83;11.38;;;23.80;85.90;;;;;;6137440;28;86173;-62
2022/09/10 01:53:43;;;;;;;24.20;11.57;;;23.90;85.10;;;;;;6133535;28;85946;-62
2022/09/10 01:56:43;;;;;;;18.98;10.90;;;23.80;85.10;;;;;;6130656;28;83906;-62
2022/09/10 01:59:45;;;;;;;21.73;11.20;;;23.80;85.20;;;;;;6130551;28;85319;-62
2022/09/10 02:02:47;;;;;;;15.70;10.35;;;23.80;85.20;;;;;;6138069;28;85218;-62
2022/09/10 02:05:48;;;;;;;22.33;12.00;;;23.80;85.30;;;;;;6115268;28;83051;-62
2022/09/10 02:08:48;;;;;;;20.20;12.20;;;23.80;85.30;;;;;;6124152;28;83994;-61
2022/09/10 02:11:50;;;;;;;21.60;11.05;;;23.80;85.30;;;;;;6122736;28;84798;-60
2022/09/10 02:15:15;;;;;;;17.13;11.57;;;23.80;85.40;;;;;;6117490;28;85848;-61
2022/09/10 02:18:29;;;;;;;20.00;11.70;;;23.80;85.30;;;;;;6113903;28;85068;-61
2022/09/10 02:21:30;;;;;;;20.73;12.02;;;23.80;85.70;;;;;;6113892;28;85914;-61
2022/09/10 02:24:31;;;;;;;22.58;12.63;;;23.80;85.20;;;;;;6120927;28;84894;-62
2022/09/10 02:27:32;;;;;;;19.50;12.15;;;23.80;85.20;;;;;;6122839;28;84259;-61
2022/09/10 02:30:33;;;;;;;21.23;12.90;;;23.80;85.50;;;;;;6125632;28;86080;-61
2022/09/10 02:33:34;;;;;;;23.45;13.05;;;23.80;85.40;;;;;;6102319;28;88791;-61
2022/09/10 02:36:35;;;;;;;23.65;11.50;;;23.80;85.40;;;;;;6101785;28;84410;-60
2022/09/10 02:39:36;;;;;;;27.55;13.25;;;23.80;85.50;;;;;;6095629;28;85929;-61
2022/09/10 02:42:37;;;;;;;19.25;12.25;;;23.80;85.30;;;;;;6115105;28;86449;-67
2022/09/10 02:45:39;;;;;;;28.23;12.57;;;23.80;85.30;;;;;;6121450;28;85790;-67
2022/09/10 02:48:40;;;;;;;21.88;12.73;;;23.80;85.20;;;;;;6125303;28;85762;-66
2022/09/10 02:51:43;;;;;;;25.90;14.10;;;23.80;85.30;;;;;;6123032;28;85101;-66
2022/09/10 02:54:44;;;;;;;25.10;14.20;;;23.80;85.30;;;;;;6125197;28;85540;-67
2022/09/10 02:57:44;;;;;;;27.05;14.80;;;23.80;85.50;;;;;;6135656;28;97964;-67
2022/09/10 03:00:45;;;;;;;27.58;13.15;;;23.80;85.40;;;;;;6129190;28;84170;-66
2022/09/10 03:03:46;;;;;;;26.75;14.80;;;23.70;85.40;;;;;;6134748;28;84168;-66
2022/09/10 03:06:48;;;;;;;23.08;13.77;;;23.80;85.50;;;;;;6140656;28;83361;-66
2022/09/10 03:09:48;;;;;;;27.55;14.48;;;23.80;85.80;;;;;;6145683;28;86108;-67
2022/09/10 03:12:49;;;;;;;27.30;14.40;;;23.80;85.70;;;;;;6146848;28;84451;-67
2022/09/10 03:15:51;;;;;;;30.10;14.93;;;23.70;85.70;;;;;;6135855;28;85436;-69
2022/09/10 03:18:52;;;;;;;27.08;14.38;;;23.80;85.70;;;;;;6124001;28;85336;-60
2022/09/10 03:21:52;;;;;;;28.10;14.57;;;23.70;85.80;;;;;;6119692;28;82950;-60
2022/09/10 03:24:53;;;;;;;24.98;13.60;;;23.80;85.50;;;;;;6127124;28;83103;-59
2022/09/10 03:27:54;;;;;;;27.95;14.50;;;23.80;85.70;;;;;;6118453;28;86041;-59
2022/09/10 03:30:55;;;;;;;30.90;14.07;;;23.80;85.80;;;;;;6106437;28;83420;-60
2022/09/10 03:33:56;;;;;;;26.58;14.10;;;23.70;86.10;;;;;;6109085;28;86227;-60
2022/09/10 03:36:57;;;;;;;31.20;14.60;;;23.70;85.80;;;;;;6111611;28;83952;-72
2022/09/10 03:39:57;;;;;;;26.08;13.70;;;23.70;85.80;;;;;;6124554;28;85758;-59
2022/09/10 03:42:58;;;;;;;39.88;15.82;;;23.70;85.70;;;;;;6123067;28;84724;-59
2022/09/10 03:45:58;;;;;;;27.77;14.98;;;23.70;85.70;;;;;;6123650;28;82876;-59
2022/09/10 03:49:02;;;;;;;27.38;14.50;;;23.70;85.70;;;;;;6136544;28;85750;-59
2022/09/10 03:52:03;;;;;;;31.42;14.73;;;23.70;85.70;;;;;;6128206;28;89242;-62
2022/09/10 03:55:09;;;;;;;28.88;14.60;;;23.70;85.80;;;;;;6126570;28;85298;-58
2022/09/10 03:58:09;;;;;;;25.83;13.68;;;23.70;85.60;;;;;;6116801;28;90986;-72
2022/09/10 04:01:10;;;;;;;26.40;13.40;;;23.70;85.70;;;;;;6115770;28;83912;-72
2022/09/10 04:04:15;;;;;;;28.00;15.50;;;23.70;85.50;;;;;;6119773;28;85506;-72
2022/09/10 04:07:15;;;;;;;26.58;13.77;;;23.70;86.00;;;;;;6125615;28;85941;-74
2022/09/10 04:10:15;;;;;;;23.45;13.27;;;23.80;85.90;;;;;;6115443;28;86039;-74
2022/09/10 04:13:16;;;;;;;28.55;14.75;;;23.70;85.70;;;;;;6131018;28;86191;-73
2022/09/10 04:16:17;;;;;;;25.38;14.95;;;23.80;85.80;;;;;;6119051;28;85661;-73
2022/09/10 04:19:18;;;;;;;28.77;13.18;;;23.80;85.90;;;;;;6117993;28;86015;-72
2022/09/10 04:22:21;;;;;;;28.35;14.00;;;23.80;86.00;;;;;;6141603;28;85189;-73
2022/09/10 04:25:23;;;;;;;26.58;13.38;;;23.80;84.30;;;;;;6112214;28;85303;-72
2022/09/10 04:28:23;;;;;;;23.33;13.50;;;23.70;85.80;;;;;;6112076;28;87573;-73
2022/09/10 04:31:24;;;;;;;24.85;13.52;;;23.70;85.40;;;;;;6141659;28;85156;-73
2022/09/10 04:34:29;;;;;;;28.63;14.32;;;23.80;85.90;;;;;;6139258;28;85671;-72
2022/09/10 04:37:30;;;;;;;26.45;14.50;;;23.90;86.00;;;;;;6118367;28;84170;-73
2022/09/10 04:40:30;;;;;;;23.38;12.68;;;23.80;85.70;;;;;;6138056;28;85038;-73
2022/09/10 04:43:31;;;;;;;23.60;12.52;;;23.80;85.80;;;;;;6143591;28;85565;-73
2022/09/10 04:46:33;;;;;;;25.42;13.05;;;23.80;85.60;;;;;;6144040;28;87512;-69
2022/09/10 04:49:35;;;;;;;21.55;12.02;;;23.80;85.70;;;;;;6126696;28;85796;-65
2022/09/10 04:52:36;;;;;;;25.52;13.15;;;23.80;84.80;;;;;;6142031;28;85634;-67
2022/09/10 04:55:36;;;;;;;22.73;12.73;;;23.80;86.10;;;;;;6137929;28;85913;-67
2022/09/10 04:58:37;;;;;;;26.85;13.07;;;23.80;86.00;;;;;;6119958;28;86860;-67
2022/09/10 05:01:37;;;;;;;25.48;13.25;;;23.80;83.70;;;;;;6117538;28;83457;-69
2022/09/10 05:04:38;;;;;;;19.90;11.65;;;23.70;85.70;;;;;;6116785;28;84592;-67
2022/09/10 05:07:39;;;;;;;21.58;12.05;;;23.70;85.40;;;;;;6121832;28;85809;-69
2022/09/10 05:10:41;;;;;;;21.52;12.20;;;23.80;84.80;;;;;;6124450;28;85227;-61
2022/09/10 05:13:42;;;;;;;18.73;11.20;;;23.80;85.40;;;;;;6112610;28;85819;-61
2022/09/10 05:16:45;;;;;;;19.88;11.88;;;23.80;85.50;;;;;;6095207;28;85991;-59
2022/09/10 05:19:45;;;;;;;24.30;12.73;;;23.90;85.10;;;;;;6116333;28;85573;-59
2022/09/10 05:22:46;;;;;;;21.15;11.23;;;23.90;84.90;;;;;;6140319;28;84761;-60
2022/09/10 05:25:47;;;;;;;19.48;10.45;;;24.00;83.90;;;;;;6148070;28;86123;-59
2022/09/10 05:28:48;;;;;;;33.42;10.85;;;24.00;83.90;;;;;;6144512;28;86532;-62
2022/09/10 05:31:50;;;;;;;23.00;11.18;;;24.00;86.90;;;;;;6160179;28;89548;-69
2022/09/10 05:34:52;;;;;;;23.75;9.82;;;23.90;85.90;;;;;;6137438;28;86108;-62
2022/09/10 05:37:52;;;;;;;14.82;9.57;;;24.10;85.80;;;;;;6143777;28;86700;-62
2022/09/10 05:40:53;;;;;;;21.45;11.18;;;24.00;85.10;;;;;;6131408;28;80433;-62
2022/09/10 05:43:55;;;;;;;21.42;10.77;;;24.00;86.20;;;;;;6119861;28;82811;-61
2022/09/10 05:46:55;;;;;;;20.08;11.77;;;24.00;86.70;;;;;;6114518;28;84364;-57
2022/09/10 05:49:56;;;;;;;20.65;11.05;;;24.00;84.90;;;;;;6118426;28;82833;-59
2022/09/10 05:52:57;;;;;;;19.77;11.25;;;24.00;85.60;;;;;;6113698;28;86796;-56
2022/09/10 05:56:00;;;;;;;18.50;10.38;;;24.00;85.00;;;;;;6111758;28;84172;-57
2022/09/10 05:59:02;;;;;;;18.17;10.77;;;24.00;85.90;;;;;;6117495;28;85676;-58
2022/09/10 06:02:04;;;;;;;16.30;9.90;;;24.00;86.60;;;;;;6117989;28;84640;-56
2022/09/10 06:05:05;;;;;;;18.33;10.18;;;24.00;86.00;;;;;;6115334;28;85356;-63
2022/09/10 06:08:06;;;;;;;14.95;8.68;;;24.00;86.00;;;;;;6114784;28;83999;-66
2022/09/10 06:11:07;;;;;;;15.73;9.38;;;23.90;86.10;;;;;;6116784;28;84006;-66
2022/09/10 06:14:16;;;;;;;19.08;10.00;;;23.90;85.70;;;;;;6122831;28;82412;-64
2022/09/10 06:17:16;;;;;;;17.27;9.50;;;23.90;85.00;;;;;;6111957;28;83024;-66
2022/09/10 06:20:19;;;;;;;16.83;9.75;;;23.90;85.40;;;;;;6096221;28;83154;-65
2022/09/10 06:23:20;;;;;;;14.93;9.32;;;23.90;86.20;;;;;;6145895;28;82530;-65
2022/09/10 06:26:21;;;;;;;19.92;10.18;;;23.90;85.80;;;;;;6139805;28;84620;-64
2022/09/10 06:29:23;;;;;;;16.52;9.63;;;23.90;85.70;;;;;;6099350;28;83380;-66
2022/09/10 06:32:24;;;;;;;21.90;10.98;;;23.90;86.60;;;;;;6130508;28;85030;-65
2022/09/10 06:35:26;;;;;;;22.13;12.43;;;23.90;86.30;;;;;;6113002;28;83892;-64
2022/09/10 06:38:28;;;;;;;26.65;13.68;;;23.90;85.80;;;;;;6118934;28;89539;-64
2022/09/10 06:41:30;;;;;;;21.45;12.27;;;23.80;86.40;;;;;;6129184;28;85274;-65
2022/09/10 06:44:38;;;;;;;26.58;11.93;;;23.90;86.20;;;;;;6113068;28;84678;-68
2022/09/10 06:47:54;;;;;;;29.70;13.95;;;23.90;86.20;;;;;;6116088;28;85332;-67
2022/09/10 06:50:55;;;;;;;28.83;12.80;;;23.90;85.10;;;;;;6111583;28;85649;-65
2022/09/10 06:54:00;;;;;;;25.00;13.90;;;23.90;85.80;;;;;;6129641;28;86359;-69
2022/09/10 06:57:03;;;;;;;24.25;12.93;;;24.00;85.70;;;;;;6134197;28;85499;-65
2022/09/10 07:00:04;;;;;;;20.02;13.45;;;23.90;84.70;;;;;;6122642;28;85433;-48
2022/09/10 07:03:05;;;;;;;21.00;12.05;;;23.90;84.80;;;;;;6114271;28;84356;-59
2022/09/10 07:06:06;;;;;;;25.52;13.85;;;23.90;85.00;;;;;;6102523;28;84286;-59
2022/09/10 07:09:07;;;;;;;25.35;13.93;;;24.00;84.30;;;;;;6118093;28;85671;-56
2022/09/10 07:12:20;;;;;;;25.58;13.52;;;23.90;84.40;;;;;;6116419;28;85420;-59
2022/09/10 07:15:20;;;;;;;25.42;12.52;;;23.90;84.20;;;;;;6115777;28;85435;-57
2022/09/10 07:18:21;;;;;;;23.23;12.10;;;24.00;84.30;;;;;;6107177;28;85411;-59
2022/09/10 07:21:21;;;;;;;20.02;11.90;;;24.00;84.60;;;;;;6124792;28;85840;-58
2022/09/10 07:24:23;;;;;;;26.45;12.43;;;23.90;83.90;;;;;;6101146;28;86071;-58
2022/09/10 07:27:44;;;;;;;24.33;12.20;;;23.90;85.60;;;;;;6089094;28;84067;-58
2022/09/10 07:30:46;;;;;;;21.55;11.35;;;24.10;84.50;;;;;;6103265;28;85699;-57
2022/09/10 07:33:48;;;;;;;27.65;12.95;;;24.00;84.90;;;;;;6124460;28;86092;-59
2022/09/10 07:36:48;;;;;;;25.20;12.73;;;24.00;85.20;;;;;;6124919;28;83192;-66
2022/09/10 07:39:49;;;;;;;24.60;12.63;;;24.00;84.40;;;;;;6137760;28;85944;-67
2022/09/10 07:42:51;;;;;;;18.15;11.05;;;24.00;84.40;;;;;;6123878;28;85611;-65
2022/09/10 07:45:52;;;;;;;19.02;11.48;;;23.60;84.00;;;;;;6100929;28;85947;-66
2022/09/10 07:48:52;;;;;;;22.38;12.32;;;23.90;84.30;;;;;;6109541;28;86840;-62
2022/09/10 07:51:53;;;;;;;19.52;11.55;;;23.90;85.20;;;;;;6105665;28;84228;-62
2022/09/10 07:54:54;;;;;;;28.73;15.05;;;23.90;84.50;;;;;;6124642;28;85837;-63
2022/09/10 07:57:55;;;;;;;26.13;14.18;;;23.70;85.20;;;;;;6115855;28;85824;-68
2022/09/10 08:00:56;;;;;;;22.48;14.40;;;23.80;84.90;;;;;;6111638;28;83311;-67
2022/09/10 08:03:57;;;;;;;25.00;13.45;;;23.80;84.20;;;;;;6121936;28;83533;-66
2022/09/10 08:06:59;;;;;;;23.27;13.77;;;23.80;84.50;;;;;;6107884;28;89366;-74
2022/09/10 08:10:01;;;;;;;23.17;13.00;;;23.80;84.70;;;;;;6103932;28;84525;-64
2022/09/10 08:13:02;;;;;;;22.63;13.57;;;23.90;84.10;;;;;;6103943;28;85395;-70
2022/09/10 08:16:03;;;;;;;25.02;13.75;;;23.90;84.30;;;;;;6130335;28;85722;-66
2022/09/10 08:19:04;;;;;;;25.92;14.43;;;23.90;84.30;;;;;;6140628;28;89162;-65
2022/09/10 08:22:07;;;;;;;26.50;13.77;;;24.00;83.70;;;;;;6113236;28;85823;-66
2022/09/10 08:25:14;;;;;;;23.33;12.60;;;23.90;84.30;;;;;;6116120;28;86235;-66
2022/09/10 08:28:17;;;;;;;25.60;13.45;;;23.90;84.00;;;;;;6116775;28;85861;-65
2022/09/10 08:31:17;;;;;;;20.05;12.25;;;24.00;84.60;;;;;;6116018;28;85985;-64
2022/09/10 08:34:26;;;;;;;22.02;13.55;;;24.00;84.50;;;;;;6111428;28;84095;-64
2022/09/10 08:37:34;;;;;;;22.10;13.13;;;23.90;83.50;;;;;;6111880;28;85226;-64
2022/09/10 08:40:36;;;;;;;18.05;11.02;;;23.80;83.80;;;;;;6122318;28;86037;-63
2022/09/10 08:43:40;;;;;;;22.58;11.80;;;23.90;84.50;;;;;;6120853;28;84558;-62
2022/09/10 08:46:41;;;;;;;24.10;11.95;;;23.90;84.80;;;;;;6109061;28;85047;-62
2022/09/10 08:49:43;;;;;;;21.23;12.00;;;24.10;84.60;;;;;;6118551;28;82878;-67
2022/09/10 08:52:43;;;;;;;22.05;12.50;;;23.70;84.60;;;;;;6122121;28;86035;-68
2022/09/10 08:55:54;;;;;;;18.95;10.63;;;23.80;84.40;;;;;;6114883;28;85633;-66
2022/09/10 08:58:54;;;;;;;20.58;10.52;;;24.00;84.30;;;;;;6121417;28;83736;-66
2022/09/10 09:01:55;;;;;;;21.80;11.27;;;23.90;85.00;;;;;;6124228;28;85679;-66
2022/09/10 09:04:57;;;;;;;19.05;10.30;;;23.90;84.00;;;;;;6110178;28;86069;-66
2022/09/10 09:07:58;;;;;;;22.50;12.50;;;24.00;84.80;;;;;;6113651;28;83267;-58
2022/09/10 09:11:01;;;;;;;18.10;9.95;;;24.00;84.70;;;;;;6118097;28;86114;-59
2022/09/10 09:14:01;;;;;;;17.30;10.25;;;24.00;84.80;;;;;;6129736;28;83688;-57
2022/09/10 09:17:04;;;;;;;22.20;11.88;;;24.00;84.50;;;;;;6128134;28;83483;-57
2022/09/10 09:20:05;;;;;;;17.75;8.93;;;24.00;85.00;;;;;;6120688;28;85743;-56
2022/09/10 09:23:07;;;;;;;16.95;9.52;;;24.00;84.10;;;;;;6147359;28;85888;-58
2022/09/10 09:26:12;;;;;;;14.13;8.63;;;24.00;83.80;;;;;;6129052;28;83138;-63
2022/09/10 09:29:17;;;;;;;15.73;9.73;;;24.00;84.50;;;;;;6119410;28;83260;-65
2022/09/10 09:32:19;;;;;;;18.80;9.93;;;24.30;84.60;;;;;;6121470;28;83282;-68
2022/09/10 09:35:22;;;;;;;14.75;9.10;;;24.00;83.60;;;;;;6117705;28;81862;-63
2022/09/10 09:38:23;;;;;;;14.55;8.07;;;23.90;84.30;;;;;;6133452;28;82927;-66
2022/09/10 09:41:26;;;;;;;19.02;8.60;;;23.90;84.10;;;;;;6135482;28;82504;-66
2022/09/10 09:44:27;;;;;;;10.82;7.13;;;23.90;83.90;;;;;;6131311;28;83523;-58
2022/09/10 09:47:27;;;;;;;12.20;7.47;;;24.00;84.40;;;;;;6126179;28;80701;-58
2022/09/10 09:50:28;;;;;;;18.63;8.35;;;24.00;84.70;;;;;;6131873;28;83632;-59
2022/09/10 09:53:29;;;;;;;13.70;7.38;;;23.90;85.20;;;;;;6126261;28;80403;-61
2022/09/10 09:56:30;;;;;;;11.20;6.35;;;23.90;84.50;;;;;;6126836;28;81107;-61
2022/09/10 09:59:30;;;;;;;10.75;6.07;;;23.90;85.20;;;;;;6119061;28;80855;-59
2022/09/10 10:02:31;;;;;;;10.75;6.43;;;23.90;84.70;;;;;;6126467;28;81664;-60
2022/09/10 10:05:31;;;;;;;10.77;6.22;;;23.90;85.00;;;;;;6108166;28;80476;-62
2022/09/10 10:08:32;;;;;;;11.07;6.10;;;24.00;85.20;;;;;;6110439;28;80699;-60
2022/09/10 10:11:33;;;;;;;11.38;6.85;;;23.90;85.70;;;;;;6120923;28;80979;-59
2022/09/10 10:14:34;;;;;;;12.15;7.03;;;24.00;85.60;;;;;;6120142;28;81508;-60
2022/09/10 10:17:34;;;;;;;11.15;6.72;;;24.00;84.60;;;;;;6117978;28;84493;-61
2022/09/10 10:20:35;;;;;;;11.65;6.90;;;24.00;85.60;;;;;;6120739;28;80090;-60
2022/09/10 10:23:36;;;;;;;16.60;7.05;;;24.00;86.10;;;;;;6121357;28;81623;-54
2022/09/10 10:26:37;;;;;;;11.85;6.22;;;24.00;85.10;;;;;;6127283;28;85538;-57
2022/09/10 10:29:38;;;;;;;20.30;6.20;;;24.10;85.20;;;;;;6123720;28;82486;-56
2022/09/10 10:32:38;;;;;;;12.88;6.07;;;24.10;85.20;;;;;;6107294;28;80382;-56
2022/09/10 10:35:40;;;;;;;10.43;6.38;;;24.10;85.40;;;;;;6127801;28;81221;-58
2022/09/10 10:38:40;;;;;;;10.80;5.78;;;24.10;85.00;;;;;;6129194;28;83811;-55
2022/09/10 10:41:41;;;;;;;13.52;6.05;;;24.10;85.80;;;;;;6116305;28;81247;-62
2022/09/10 10:44:42;;;;;;;12.38;4.88;;;24.10;85.30;;;;;;6119846;28;83624;-64
2022/09/10 10:47:42;;;;;;;8.25;5.13;;;24.10;85.90;;;;;;6120074;28;81528;-63
2022/09/10 10:50:43;;;;;;;7.05;4.72;;;24.00;85.90;;;;;;6103765;28;80238;-62
2022/09/10 10:53:43;;;;;;;7.10;4.50;;;23.90;85.90;;;;;;6109926;28;80557;-64
2022/09/10 10:56:44;;;;;;;8.77;4.00;;;24.00;85.50;;;;;;6103959;28;81286;-61
2022/09/10 10:59:45;;;;;;;4.70;3.60;;;24.00;85.40;;;;;;6106063;28;84924;-60
2022/09/10 11:02:45;;;;;;;11.57;4.45;;;24.00;85.60;;;;;;6110145;28;80776;-60
2022/09/10 11:05:47;;;;;;;5.70;3.67;;;24.00;85.00;;;;;;6105862;28;82018;-62
2022/09/10 11:08:49;;;;;;;4.47;3.20;;;24.00;84.70;;;;;;6106981;28;80873;-62
2022/09/10 11:11:50;;;;;;;8.45;3.97;;;24.00;86.30;;;;;;6106534;28;80160;-61
2022/09/10 11:14:50;;;;;;;5.07;3.05;;;24.00;85.40;;;;;;6113920;28;80603;-60
2022/09/10 11:17:52;;;;;;;5.22;3.53;;;24.00;85.80;;;;;;6118981;28;80501;-63
2022/09/10 11:20:53;;;;;;;9.77;3.88;;;24.00;86.40;;;;;;6123463;28;84403;-63
2022/09/10 11:23:54;;;;;;;5.32;3.72;;;24.00;86.60;;;;;;6123645;28;80447;-62
2022/09/10 11:26:55;;;;;;;4.55;3.17;;;24.00;86.40;;;;;;6130807;28;80635;-63
2022/09/10 11:29:56;;;;;;;13.55;3.63;;;24.00;85.80;;;;;;6112916;28;83674;-62
2022/09/10 11:32:56;;;;;;;4.78;3.35;;;24.00;85.70;;;;;;6112271;28;83156;-62
2022/09/10 11:35:58;;;;;;;6.55;3.15;;;23.90;85.80;;;;;;6075633;28;83468;-60
2022/09/10 11:38:59;;;;;;;8.88;2.75;;;23.90;86.30;;;;;;6099857;28;80485;-61
2022/09/10 11:41:59;;;;;;;4.50;3.08;;;24.00;86.30;;;;;;6094117;28;83334;-55
2022/09/10 11:45:00;;;;;;;4.97;2.80;;;24.00;86.70;;;;;;6097412;28;83721;-58
2022/09/10 11:48:00;;;;;;;3.35;2.50;;;24.10;86.70;;;;;;6103057;28;83572;-54
2022/09/10 11:51:01;;;;;;;3.05;2.65;;;24.00;86.00;;;;;;6110912;28;82768;-54
2022/09/10 11:54:01;;;;;;;4.70;2.63;;;24.20;86.00;;;;;;6098577;28;80827;-62
2022/09/10 11:57:02;;;;;;;3.15;2.65;;;24.20;85.20;;;;;;6115865;28;80590;-61
2022/09/10 12:00:03;;;;;;;20.45;4.40;;;24.10;86.10;;;;;;6107934;28;89170;-62
2022/09/10 12:03:06;;;;;;;9.15;4.18;;;24.30;87.10;;;;;;6111102;28;80802;-69
2022/09/10 12:06:07;;;;;;;11.93;6.10;;;24.20;85.80;;;;;;6101499;28;80258;-63
2022/09/10 12:09:08;;;;;;;9.15;5.32;;;24.30;86.20;;;;;;6119106;28;81847;-62
2022/09/10 12:12:09;;;;;;;6.75;4.97;;;24.10;85.20;;;;;;6099476;28;82711;-63
2022/09/10 12:15:09;;;;;;;17.67;5.07;;;24.30;86.00;;;;;;6077129;28;84959;-64
2022/09/10 12:18:10;;;;;;;6.38;4.78;;;24.30;85.80;;;;;;6090624;28;83638;-62
2022/09/10 12:21:10;;;;;;;7.35;4.78;;;24.40;85.60;;;;;;6100729;28;87564;-62
2022/09/10 12:24:11;;;;;;;18.13;6.25;;;24.40;85.40;;;;;;6104505;28;80961;-62
2022/09/10 12:27:12;;;;;;;9.02;4.45;;;24.40;87.40;;;;;;6106828;28;81080;-60
2022/09/10 12:30:13;;;;;;;7.78;4.82;;;24.40;86.70;;;;;;6127112;28;80358;-61
2022/09/10 12:33:13;;;;;;;6.68;3.85;;;24.40;87.50;;;;;;6098727;28;82948;-62
2022/09/10 12:36:14;;;;;;;16.33;5.05;;;24.40;86.80;;;;;;6120630;28;84686;-60
2022/09/10 12:39:18;;;;;;;6.95;3.65;;;24.40;87.80;;;;;;6127856;28;80236;-61
2022/09/10 12:42:20;;;;;;;6.63;3.75;;;24.40;87.70;;;;;;6117922;28;82788;-61
2022/09/10 12:45:22;;;;;;;5.95;4.05;;;24.40;85.70;;;;;;6129574;28;85027;-60
2022/09/10 12:48:22;;;;;;;6.15;4.00;;;24.50;84.70;;;;;;6117083;28;80662;-62
2022/09/10 12:51:23;;;;;;;5.60;3.33;;;24.60;84.90;;;;;;6102940;28;80651;-60
2022/09/10 12:54:23;;;;;;;4.75;3.38;;;24.50;85.90;;;;;;6104914;28;80612;-63
2022/09/10 12:57:24;;;;;;;4.88;3.95;;;24.40;85.50;;;;;;6106350;28;80734;-60
2022/09/10 13:00:24;;;;;;;5.28;3.60;;;24.40;85.80;;;;;;6115144;28;80089;-61
2022/09/10 13:03:25;;;;;;;6.05;3.30;;;24.30;86.20;;;;;;6128258;28;84277;-61
2022/09/10 13:06:25;;;;;;;3.72;3.13;;;24.40;85.80;;;;;;6117460;28;81522;-69
2022/09/10 13:09:26;;;;;;;5.72;2.90;;;24.30;86.20;;;;;;6122969;28;81233;-57
2022/09/10 13:12:26;;;;;;;3.67;2.85;;;24.70;85.80;;;;;;6105667;28;81576;-58
2022/09/10 13:15:28;;;;;;;4.75;2.92;;;24.40;85.40;;;;;;6122929;28;81995;-58
2022/09/10 13:18:29;;;;;;;4.15;2.95;;;24.60;84.80;;;;;;6127389;28;80731;-58
2022/09/10 13:21:29;;;;;;;5.55;3.08;;;24.40;84.30;;;;;;6119644;28;81705;-59
2022/09/10 13:24:30;;;;;;;4.15;3.35;;;24.30;83.40;;;;;;6112168;28;80753;-59
2022/09/10 13:27:30;;;;;;;4.60;3.47;;;24.40;84.30;;;;;;6120465;28;83051;-58
2022/09/10 13:30:31;;;;;;;8.50;3.63;;;24.40;84.20;;;;;;6116485;28;82423;-65
2022/09/10 13:33:32;;;;;;;6.75;3.90;;;24.40;83.00;;;;;;6122397;28;81961;-59
2022/09/10 13:36:33;;;;;;;4.22;3.30;;;24.30;83.70;;;;;;6109258;28;81017;-58
2022/09/10 13:39:33;;;;;;;5.93;3.50;;;24.40;83.60;;;;;;6112286;28;80594;-59
2022/09/10 13:42:34;;;;;;;5.30;3.15;;;24.40;84.10;;;;;;6104783;28;80264;-59
2022/09/10 13:45:34;;;;;;;5.72;3.50;;;24.30;81.90;;;;;;6120170;28;80368;-62
2022/09/10 13:48:35;;;;;;;6.15;2.85;;;24.10;82.80;;;;;;6119169;28;80379;-60
2022/09/10 13:51:35;;;;;;;2.80;2.60;;;24.30;83.70;;;;;;6123505;28;80288;-60
2022/09/10 13:54:36;;;;;;;6.78;2.53;;;24.40;83.70;;;;;;6108093;28;81535;-60
2022/09/10 13:57:36;;;;;;;5.22;2.80;;;24.30;81.30;;;;;;6099512;28;81447;-60
2022/09/10 14:00:37;;;;;;;3.75;2.50;;;24.30;83.60;;;;;;6099149;28;81333;-60
2022/09/10 14:03:39;;;;;;;3.42;2.63;;;24.40;83.10;;;;;;6102522;28;80363;-63
2022/09/10 14:06:39;;;;;;;2.90;2.17;;;24.40;82.60;;;;;;6102492;28;83499;-61
2022/09/10 14:09:40;;;;;;;2.20;2.00;;;24.10;79.90;;;;;;6104929;28;80478;-62
2022/09/10 14:12:40;;;;;;;2.35;1.88;;;23.80;80.90;;;;;;6125308;28;81657;-62
2022/09/10 14:15:41;;;;;;;2.65;2.05;;;23.90;81.70;;;;;;6123868;28;85232;-60
2022/09/10 14:18:42;;;;;;;2.20;1.90;;;24.00;79.50;;;;;;6124189;28;81556;-63
2022/09/10 14:21:42;;;;;;;3.42;2.22;;;24.20;82.60;;;;;;6121671;28;80488;-63
2022/09/10 14:24:43;;;;;;;5.80;2.83;;;24.30;82.10;;;;;;6121135;28;82569;-61
2022/09/10 14:27:43;;;;;;;4.88;2.15;;;24.30;81.50;;;;;;6102623;28;83585;-61
2022/09/10 14:30:44;;;;;;;7.88;2.33;;;24.40;81.60;;;;;;6105643;28;80661;-63
2022/09/10 14:33:44;;;;;;;11.73;2.42;;;24.30;68.60;;;;;;6128168;28;80667;-60
2022/09/10 14:36:44;;;;;;;2.42;2.15;;;24.30;69.00;;;;;;6124361;28;80802;-59
2022/09/10 14:39:46;;;;;;;4.47;2.08;;;24.30;68.70;;;;;;6119955;28;80806;-62
2022/09/10 14:42:46;;;;;;;3.22;2.33;;;24.30;68.50;;;;;;6121548;28;80339;-63
2022/09/10 14:45:48;;;;;;;7.22;3.90;;;24.30;68.50;;;;;;6123133;28;82428;-61
2022/09/10 14:48:49;;;;;;;5.53;2.72;;;24.30;68.70;;;;;;6129229;28;80756;-62
2022/09/10 14:51:49;;;;;;;6.32;2.60;;;24.30;69.30;;;;;;6128806;28;80430;-65
2022/09/10 14:54:50;;;;;;;4.07;2.97;;;24.20;69.70;;;;;;6124864;28;85040;-64
2022/09/10 14:57:50;;;;;;;5.05;3.15;;;24.20;70.00;;;;;;6115762;28;80925;-62
2022/09/10 15:00:51;;;;;;;8.95;3.17;;;24.20;70.30;;;;;;6108710;28;80367;-62
2022/09/10 15:03:51;;;;;;;8.50;3.35;;;24.20;70.30;;;;;;6111994;28;80367;-64
2022/09/10 15:06:52;;;;;;;4.72;3.08;;;24.30;70.10;;;;;;6109576;28;80373;-64
2022/09/10 15:09:53;;;;;;;7.00;3.20;;;24.30;70.30;;;;;;6102270;28;81276;-63
2022/09/10 15:12:55;;;;;;;2.97;2.45;;;24.30;69.90;;;;;;6110494;28;80090;-66
2022/09/10 15:15:55;;;;;;;4.70;3.03;;;24.30;69.90;;;;;;6127513;28;80155;-64
2022/09/10 15:18:57;;;;;;;8.95;3.63;;;24.30;69.80;;;;;;6120611;28;80346;-65
2022/09/10 15:21:57;;;;;;;7.50;3.90;;;24.30;69.30;;;;;;6114412;28;80621;-64
2022/09/10 15:24:58;;;;;;;7.85;3.60;;;24.30;69.30;;;;;;6113660;28;81382;-65
2022/09/10 15:27:58;;;;;;;6.45;3.08;;;24.30;68.80;;;;;;6121912;28;81202;-64